sensor_id;sensor_type;location;lat;lon;timestamp;P1;durP1;ratioP1;P2;durP2;ratioP2
77544;SDS011;66672;50.328;7.610;2023-02-15T00:01:36;38.00;;;15.53;;
77544;SDS011;66672;50.328;7.610;2023-02-15T00:04:02;32.10;;;13.63;;
77544;SDS011;66672;50.328;7.610;2023-02-15T00:06:29;29.57;;;12.73;;
77544;SDS011;66672;50.328;7.610;2023-02-15T00:08:54;29.17;;;14.10;;
77544;SDS011;66672;50.328;7.610;2023-02-15T00:11:20;31.30;;;14.13;;
77544;SDS011;66672;50.328;7.610;2023-02-15T00:14:11;33.93;;;15.47;;
77544;SDS011;66672;50.328;7.610;2023-02-15T00:16:39;39.63;;;15.73;;
77544;SDS011;66672;50.328;7.610;2023-02-15T00:19:06;32.73;;;15.13;;
77544;SDS011;66672;50.328;7.610;2023-02-15T00:21:32;29.13;;;14.27;;
77544;SDS011;66672;50.328;7.610;2023-02-15T00:24:00;30.13;;;12.90;;
77544;SDS011;66672;50.328;7.610;2023-02-15T00:26:26;37.00;;;14.37;;
77544;SDS011;66672;50.328;7.610;2023-02-15T00:28:52;33.43;;;14.70;;
77544;SDS011;66672;50.328;7.610;2023-02-15T00:31:19;29.77;;;13.23;;
77544;SDS011;66672;50.328;7.610;2023-02-15T00:33:44;29.80;;;13.20;;
77544;SDS011;66672;50.328;7.610;2023-02-15T00:36:10;28.83;;;12.17;;
77544;SDS011;66672;50.328;7.610;2023-02-15T00:38:36;31.93;;;15.50;;
77544;SDS011;66672;50.328;7.610;2023-02-15T00:41:03;31.23;;;14.23;;
77544;SDS011;66672;50.328;7.610;2023-02-15T00:43:30;28.93;;;13.47;;
77544;SDS011;66672;50.328;7.610;2023-02-15T00:45:56;27.13;;;12.87;;
77544;SDS011;66672;50.328;7.610;2023-02-15T00:48:22;35.07;;;15.23;;
77544;SDS011;66672;50.328;7.610;2023-02-15T00:50:48;34.93;;;14.50;;
77544;SDS011;66672;50.328;7.610;2023-02-15T00:53:14;30.47;;;12.73;;
77544;SDS011;66672;50.328;7.610;2023-02-15T00:55:40;33.73;;;14.17;;
77544;SDS011;66672;50.328;7.610;2023-02-15T00:58:06;31.03;;;13.53;;
77544;SDS011;66672;50.328;7.610;2023-02-15T01:00:31;32.40;;;13.40;;
77544;SDS011;66672;50.328;7.610;2023-02-15T01:02:57;23.23;;;9.10;;
77544;SDS011;66672;50.328;7.610;2023-02-15T01:05:22;34.40;;;13.53;;
77544;SDS011;66672;50.328;7.610;2023-02-15T01:07:47;23.93;;;11.30;;
77544;SDS011;66672;50.328;7.610;2023-02-15T01:10:13;27.07;;;12.90;;
77544;SDS011;66672;50.328;7.610;2023-02-15T01:12:38;25.10;;;11.70;;
77544;SDS011;66672;50.328;7.610;2023-02-15T01:15:03;28.13;;;13.20;;
77544;SDS011;66672;50.328;7.610;2023-02-15T01:17:29;23.97;;;10.43;;
77544;SDS011;66672;50.328;7.610;2023-02-15T01:19:55;30.97;;;12.67;;
77544;SDS011;66672;50.328;7.610;2023-02-15T01:22:20;29.00;;;13.63;;
77544;SDS011;66672;50.328;7.610;2023-02-15T01:24:48;28.03;;;11.27;;
77544;SDS011;66672;50.328;7.610;2023-02-15T01:27:14;24.80;;;10.67;;
77544;SDS011;66672;50.328;7.610;2023-02-15T01:29:39;23.87;;;10.93;;
77544;SDS011;66672;50.328;7.610;2023-02-15T01:32:04;29.53;;;12.83;;
77544;SDS011;66672;50.328;7.610;2023-02-15T01:34:29;27.03;;;12.00;;
77544;SDS011;66672;50.328;7.610;2023-02-15T01:36:55;27.80;;;11.93;;
77544;SDS011;66672;50.328;7.610;2023-02-15T01:39:20;28.27;;;11.93;;
77544;SDS011;66672;50.328;7.610;2023-02-15T01:41:45;26.00;;;11.50;;
77544;SDS011;66672;50.328;7.610;2023-02-15T01:47:17;31.27;;;12.63;;
77544;SDS011;66672;50.328;7.610;2023-02-15T01:49:45;27.00;;;11.80;;
77544;SDS011;66672;50.328;7.610;2023-02-15T01:52:13;27.53;;;11.80;;
77544;SDS011;66672;50.328;7.610;2023-02-15T01:54:41;27.43;;;10.83;;
77544;SDS011;66672;50.328;7.610;2023-02-15T01:57:10;28.53;;;12.73;;
77544;SDS011;66672;50.328;7.610;2023-02-15T01:59:41;29.13;;;11.70;;
77544;SDS011;66672;50.328;7.610;2023-02-15T02:02:09;24.53;;;11.37;;
77544;SDS011;66672;50.328;7.610;2023-02-15T02:04:42;20.33;;;10.40;;
77544;SDS011;66672;50.328;7.610;2023-02-15T02:07:13;26.83;;;11.70;;
77544;SDS011;66672;50.328;7.610;2023-02-15T02:09:41;25.43;;;11.63;;
77544;SDS011;66672;50.328;7.610;2023-02-15T02:12:08;32.43;;;12.93;;
77544;SDS011;66672;50.328;7.610;2023-02-15T02:14:34;24.67;;;10.80;;
77544;SDS011;66672;50.328;7.610;2023-02-15T02:17:11;30.20;;;12.00;;
77544;SDS011;66672;50.328;7.610;2023-02-15T02:23:00;27.73;;;11.68;;
77544;SDS011;66672;50.328;7.610;2023-02-15T02:25:34;33.35;;;13.07;;
77544;SDS011;66672;50.328;7.610;2023-02-15T02:37:03;21.93;;;11.03;;
77544;SDS011;66672;50.328;7.610;2023-02-15T02:42:08;21.43;;;9.27;;
77544;SDS011;66672;50.328;7.610;2023-02-15T02:44:43;20.57;;;9.17;;
77544;SDS011;66672;50.328;7.610;2023-02-15T02:47:33;18.57;;;8.67;;
77544;SDS011;66672;50.328;7.610;2023-02-15T02:50:00;23.33;;;9.80;;
77544;SDS011;66672;50.328;7.610;2023-02-15T02:52:39;22.03;;;9.27;;
77544;SDS011;66672;50.328;7.610;2023-02-15T02:55:16;21.13;;;9.60;;
77544;SDS011;66672;50.328;7.610;2023-02-15T02:57:53;23.80;;;10.63;;
77544;SDS011;66672;50.328;7.610;2023-02-15T03:00:23;23.47;;;10.40;;
77544;SDS011;66672;50.328;7.610;2023-02-15T03:02:53;24.40;;;11.27;;
77544;SDS011;66672;50.328;7.610;2023-02-15T03:05:24;23.88;;;10.07;;
77544;SDS011;66672;50.328;7.610;2023-02-15T03:07:52;21.97;;;9.20;;
77544;SDS011;66672;50.328;7.610;2023-02-15T03:10:22;21.47;;;9.57;;
77544;SDS011;66672;50.328;7.610;2023-02-15T03:12:49;24.50;;;10.90;;
77544;SDS011;66672;50.328;7.610;2023-02-15T03:15:18;23.90;;;10.20;;
77544;SDS011;66672;50.328;7.610;2023-02-15T03:17:48;21.53;;;10.40;;
77544;SDS011;66672;50.328;7.610;2023-02-15T03:20:20;23.77;;;10.97;;
77544;SDS011;66672;50.328;7.610;2023-02-15T03:22:51;21.80;;;9.97;;
77544;SDS011;66672;50.328;7.610;2023-02-15T03:25:21;24.07;;;10.67;;
77544;SDS011;66672;50.328;7.610;2023-02-15T03:27:52;25.00;;;10.47;;
77544;SDS011;66672;50.328;7.610;2023-02-15T03:30:23;23.63;;;9.98;;
77544;SDS011;66672;50.328;7.610;2023-02-15T03:32:50;20.83;;;9.80;;
77544;SDS011;66672;50.328;7.610;2023-02-15T03:35:18;22.77;;;10.17;;
77544;SDS011;66672;50.328;7.610;2023-02-15T03:37:55;21.80;;;9.60;;
77544;SDS011;66672;50.328;7.610;2023-02-15T03:49:03;23.43;;;10.20;;
77544;SDS011;66672;50.328;7.610;2023-02-15T03:51:34;25.50;;;10.37;;
77544;SDS011;66672;50.328;7.610;2023-02-15T03:54:04;25.80;;;10.73;;
77544;SDS011;66672;50.328;7.610;2023-02-15T03:56:32;19.60;;;9.87;;
77544;SDS011;66672;50.328;7.610;2023-02-15T03:58:59;22.83;;;9.43;;
77544;SDS011;66672;50.328;7.610;2023-02-15T04:04:33;21.60;;;9.20;;
77544;SDS011;66672;50.328;7.610;2023-02-15T04:07:04;21.53;;;10.00;;
77544;SDS011;66672;50.328;7.610;2023-02-15T04:09:31;20.53;;;8.40;;
77544;SDS011;66672;50.328;7.610;2023-02-15T04:12:15;21.33;;;8.80;;
77544;SDS011;66672;50.328;7.610;2023-02-15T04:14:40;19.07;;;8.80;;
77544;SDS011;66672;50.328;7.610;2023-02-15T04:17:24;22.77;;;8.83;;
77544;SDS011;66672;50.328;7.610;2023-02-15T04:19:50;19.03;;;8.17;;
77544;SDS011;66672;50.328;7.610;2023-02-15T04:22:34;22.00;;;9.77;;
77544;SDS011;66672;50.328;7.610;2023-02-15T04:27:44;19.67;;;9.00;;
77544;SDS011;66672;50.328;7.610;2023-02-15T04:30:12;19.30;;;8.70;;
77544;SDS011;66672;50.328;7.610;2023-02-15T04:32:39;18.87;;;8.57;;
77544;SDS011;66672;50.328;7.610;2023-02-15T04:35:05;19.63;;;8.70;;
77544;SDS011;66672;50.328;7.610;2023-02-15T04:37:31;19.63;;;9.17;;
77544;SDS011;66672;50.328;7.610;2023-02-15T04:39:57;20.07;;;9.67;;
77544;SDS011;66672;50.328;7.610;2023-02-15T04:42:23;19.33;;;9.00;;
77544;SDS011;66672;50.328;7.610;2023-02-15T04:44:52;19.03;;;8.63;;
77544;SDS011;66672;50.328;7.610;2023-02-15T04:47:18;19.67;;;8.93;;
77544;SDS011;66672;50.328;7.610;2023-02-15T04:49:43;21.27;;;9.00;;
77544;SDS011;66672;50.328;7.610;2023-02-15T04:52:09;21.00;;;10.13;;
77544;SDS011;66672;50.328;7.610;2023-02-15T04:54:34;19.03;;;8.43;;
77544;SDS011;66672;50.328;7.610;2023-02-15T04:57:00;16.50;;;8.13;;
77544;SDS011;66672;50.328;7.610;2023-02-15T04:59:25;21.80;;;9.13;;
77544;SDS011;66672;50.328;7.610;2023-02-15T05:01:50;18.10;;;8.10;;
77544;SDS011;66672;50.328;7.610;2023-02-15T05:04:15;21.30;;;8.70;;
77544;SDS011;66672;50.328;7.610;2023-02-15T05:06:41;18.17;;;8.63;;
77544;SDS011;66672;50.328;7.610;2023-02-15T05:09:06;18.63;;;8.77;;
77544;SDS011;66672;50.328;7.610;2023-02-15T05:11:31;25.67;;;10.27;;
77544;SDS011;66672;50.328;7.610;2023-02-15T05:13:57;21.13;;;10.00;;
77544;SDS011;66672;50.328;7.610;2023-02-15T05:16:22;18.80;;;8.37;;
77544;SDS011;66672;50.328;7.610;2023-02-15T05:18:47;19.67;;;9.03;;
77544;SDS011;66672;50.328;7.610;2023-02-15T05:21:13;18.03;;;8.57;;
77544;SDS011;66672;50.328;7.610;2023-02-15T05:23:38;18.43;;;8.83;;
77544;SDS011;66672;50.328;7.610;2023-02-15T05:26:04;20.00;;;8.40;;
77544;SDS011;66672;50.328;7.610;2023-02-15T05:28:48;21.80;;;9.23;;
77544;SDS011;66672;50.328;7.610;2023-02-15T05:31:14;18.23;;;8.23;;
77544;SDS011;66672;50.328;7.610;2023-02-15T05:33:42;16.77;;;8.03;;
77544;SDS011;66672;50.328;7.610;2023-02-15T05:36:07;21.27;;;9.53;;
77544;SDS011;66672;50.328;7.610;2023-02-15T05:38:33;20.63;;;8.73;;
77544;SDS011;66672;50.328;7.610;2023-02-15T05:40:59;19.53;;;9.20;;
77544;SDS011;66672;50.328;7.610;2023-02-15T05:43:25;19.20;;;9.03;;
77544;SDS011;66672;50.328;7.610;2023-02-15T05:45:52;20.20;;;8.87;;
77544;SDS011;66672;50.328;7.610;2023-02-15T05:48:19;18.53;;;8.50;;
77544;SDS011;66672;50.328;7.610;2023-02-15T05:51:08;20.90;;;9.07;;
77544;SDS011;66672;50.328;7.610;2023-02-15T05:53:37;19.80;;;8.97;;
77544;SDS011;66672;50.328;7.610;2023-02-15T05:56:03;22.07;;;9.50;;
77544;SDS011;66672;50.328;7.610;2023-02-15T05:58:31;19.23;;;9.80;;
77544;SDS011;66672;50.328;7.610;2023-02-15T06:00:58;20.80;;;9.83;;
77544;SDS011;66672;50.328;7.610;2023-02-15T06:03:24;19.10;;;9.40;;
77544;SDS011;66672;50.328;7.610;2023-02-15T06:05:50;18.43;;;9.33;;
77544;SDS011;66672;50.328;7.610;2023-02-15T06:08:16;18.67;;;8.67;;
77544;SDS011;66672;50.328;7.610;2023-02-15T06:10:42;20.00;;;8.83;;
77544;SDS011;66672;50.328;7.610;2023-02-15T06:13:07;20.67;;;9.47;;
77544;SDS011;66672;50.328;7.610;2023-02-15T06:15:33;22.17;;;9.70;;
77544;SDS011;66672;50.328;7.610;2023-02-15T06:17:58;20.47;;;8.80;;
77544;SDS011;66672;50.328;7.610;2023-02-15T06:20:24;20.77;;;10.07;;
77544;SDS011;66672;50.328;7.610;2023-02-15T06:22:49;21.30;;;10.23;;
77544;SDS011;66672;50.328;7.610;2023-02-15T06:25:15;20.37;;;9.43;;
77544;SDS011;66672;50.328;7.610;2023-02-15T06:27:41;19.53;;;9.33;;
77544;SDS011;66672;50.328;7.610;2023-02-15T06:30:08;22.50;;;9.63;;
77544;SDS011;66672;50.328;7.610;2023-02-15T06:32:34;23.73;;;9.77;;
77544;SDS011;66672;50.328;7.610;2023-02-15T06:34:59;23.07;;;9.63;;
77544;SDS011;66672;50.328;7.610;2023-02-15T06:37:25;21.40;;;9.57;;
77544;SDS011;66672;50.328;7.610;2023-02-15T06:39:50;21.83;;;10.53;;
77544;SDS011;66672;50.328;7.610;2023-02-15T06:42:15;20.10;;;9.90;;
77544;SDS011;66672;50.328;7.610;2023-02-15T06:44:42;26.47;;;9.77;;
77544;SDS011;66672;50.328;7.610;2023-02-15T06:47:08;22.40;;;9.33;;
77544;SDS011;66672;50.328;7.610;2023-02-15T06:49:33;21.23;;;9.53;;
77544;SDS011;66672;50.328;7.610;2023-02-15T06:51:58;19.40;;;8.53;;
77544;SDS011;66672;50.328;7.610;2023-02-15T06:54:24;24.87;;;9.97;;
77544;SDS011;66672;50.328;7.610;2023-02-15T06:56:49;23.43;;;10.57;;
77544;SDS011;66672;50.328;7.610;2023-02-15T06:59:14;22.13;;;9.53;;
77544;SDS011;66672;50.328;7.610;2023-02-15T07:01:39;21.80;;;9.90;;
77544;SDS011;66672;50.328;7.610;2023-02-15T07:04:05;23.63;;;9.73;;
77544;SDS011;66672;50.328;7.610;2023-02-15T07:06:31;24.13;;;10.73;;
77544;SDS011;66672;50.328;7.610;2023-02-15T07:08:57;22.60;;;10.50;;
77544;SDS011;66672;50.328;7.610;2023-02-15T07:11:24;21.13;;;10.63;;
77544;SDS011;66672;50.328;7.610;2023-02-15T07:14:08;21.93;;;9.17;;
77544;SDS011;66672;50.328;7.610;2023-02-15T07:16:34;22.70;;;9.40;;
77544;SDS011;66672;50.328;7.610;2023-02-15T07:18:59;22.10;;;9.47;;
77544;SDS011;66672;50.328;7.610;2023-02-15T07:21:24;22.60;;;10.17;;
77544;SDS011;66672;50.328;7.610;2023-02-15T07:23:50;18.50;;;9.53;;
77544;SDS011;66672;50.328;7.610;2023-02-15T07:26:15;30.43;;;10.43;;
77544;SDS011;66672;50.328;7.610;2023-02-15T07:28:40;23.07;;;10.30;;
77544;SDS011;66672;50.328;7.610;2023-02-15T07:31:05;20.97;;;9.93;;
77544;SDS011;66672;50.328;7.610;2023-02-15T07:33:31;22.17;;;9.60;;
77544;SDS011;66672;50.328;7.610;2023-02-15T07:35:58;23.93;;;10.27;;
77544;SDS011;66672;50.328;7.610;2023-02-15T07:38:27;18.23;;;9.20;;
77544;SDS011;66672;50.328;7.610;2023-02-15T07:40:58;24.20;;;10.03;;
77544;SDS011;66672;50.328;7.610;2023-02-15T07:43:28;19.15;;;8.80;;
77544;SDS011;66672;50.328;7.610;2023-02-15T07:45:54;22.07;;;10.67;;
77544;SDS011;66672;50.328;7.610;2023-02-15T07:48:23;22.07;;;10.03;;
77544;SDS011;66672;50.328;7.610;2023-02-15T07:50:48;24.40;;;10.27;;
77544;SDS011;66672;50.328;7.610;2023-02-15T07:53:14;22.53;;;10.20;;
77544;SDS011;66672;50.328;7.610;2023-02-15T07:55:39;22.30;;;10.47;;
77544;SDS011;66672;50.328;7.610;2023-02-15T07:58:04;19.23;;;9.63;;
77544;SDS011;66672;50.328;7.610;2023-02-15T08:00:30;20.73;;;10.03;;
77544;SDS011;66672;50.328;7.610;2023-02-15T08:03:15;23.83;;;10.23;;
77544;SDS011;66672;50.328;7.610;2023-02-15T08:05:41;20.63;;;9.37;;
77544;SDS011;66672;50.328;7.610;2023-02-15T08:08:08;23.30;;;10.23;;
77544;SDS011;66672;50.328;7.610;2023-02-15T08:10:56;17.10;;;8.93;;
77544;SDS011;66672;50.328;7.610;2023-02-15T08:13:42;18.93;;;9.80;;
77544;SDS011;66672;50.328;7.610;2023-02-15T08:18:53;20.35;;;8.27;;
77544;SDS011;66672;50.328;7.610;2023-02-15T08:21:19;20.13;;;9.77;;
77544;SDS011;66672;50.328;7.610;2023-02-15T08:23:45;16.47;;;7.90;;
77544;SDS011;66672;50.328;7.610;2023-02-15T08:26:11;18.77;;;9.10;;
77544;SDS011;66672;50.328;7.610;2023-02-15T08:28:36;21.80;;;9.90;;
77544;SDS011;66672;50.328;7.610;2023-02-15T08:31:05;16.70;;;7.73;;
77544;SDS011;66672;50.328;7.610;2023-02-15T08:33:32;21.47;;;9.93;;
77544;SDS011;66672;50.328;7.610;2023-02-15T08:36:01;21.63;;;10.37;;
77544;SDS011;66672;50.328;7.610;2023-02-15T08:38:28;14.20;;;7.47;;
77544;SDS011;66672;50.328;7.610;2023-02-15T08:40:53;13.63;;;6.63;;
77544;SDS011;66672;50.328;7.610;2023-02-15T08:43:19;23.03;;;10.80;;
77544;SDS011;66672;50.328;7.610;2023-02-15T08:45:44;21.90;;;9.67;;
77544;SDS011;66672;50.328;7.610;2023-02-15T08:48:09;18.63;;;9.10;;
77544;SDS011;66672;50.328;7.610;2023-02-15T08:50:34;22.97;;;10.77;;
77544;SDS011;66672;50.328;7.610;2023-02-15T08:53:00;19.97;;;9.03;;
77544;SDS011;66672;50.328;7.610;2023-02-15T08:55:25;21.50;;;9.87;;
77544;SDS011;66672;50.328;7.610;2023-02-15T08:57:50;19.67;;;8.70;;
77544;SDS011;66672;50.328;7.610;2023-02-15T09:00:16;18.70;;;8.97;;
77544;SDS011;66672;50.328;7.610;2023-02-15T09:02:42;21.17;;;10.00;;
77544;SDS011;66672;50.328;7.610;2023-02-15T09:05:07;19.03;;;8.37;;
77544;SDS011;66672;50.328;7.610;2023-02-15T09:07:32;21.10;;;10.20;;
77544;SDS011;66672;50.328;7.610;2023-02-15T09:09:57;21.27;;;9.40;;
77544;SDS011;66672;50.328;7.610;2023-02-15T09:12:23;21.37;;;9.70;;
77544;SDS011;66672;50.328;7.610;2023-02-15T09:14:48;20.63;;;9.87;;
77544;SDS011;66672;50.328;7.610;2023-02-15T09:17:16;20.37;;;9.07;;
77544;SDS011;66672;50.328;7.610;2023-02-15T09:19:41;19.10;;;10.50;;
77544;SDS011;66672;50.328;7.610;2023-02-15T09:22:07;19.13;;;8.73;;
77544;SDS011;66672;50.328;7.610;2023-02-15T09:24:32;18.60;;;8.43;;
77544;SDS011;66672;50.328;7.610;2023-02-15T09:26:58;21.90;;;10.53;;
77544;SDS011;66672;50.328;7.610;2023-02-15T09:29:24;21.10;;;9.63;;
77544;SDS011;66672;50.328;7.610;2023-02-15T09:31:49;22.60;;;10.80;;
77544;SDS011;66672;50.328;7.610;2023-02-15T09:34:16;19.63;;;8.67;;
77544;SDS011;66672;50.328;7.610;2023-02-15T09:36:43;22.73;;;10.47;;
77544;SDS011;66672;50.328;7.610;2023-02-15T09:39:13;20.80;;;9.30;;
77544;SDS011;66672;50.328;7.610;2023-02-15T09:55:24;18.97;;;10.10;;
77544;SDS011;66672;50.328;7.610;2023-02-15T10:00:51;18.67;;;8.77;;
77544;SDS011;66672;50.328;7.610;2023-02-15T10:28:55;20.93;;;10.40;;
77544;SDS011;66672;50.328;7.610;2023-02-15T10:31:27;19.63;;;9.57;;
77544;SDS011;66672;50.328;7.610;2023-02-15T10:36:48;18.93;;;9.33;;
77544;SDS011;66672;50.328;7.610;2023-02-15T10:39:41;19.10;;;9.27;;
77544;SDS011;66672;50.328;7.610;2023-02-15T10:48:18;18.90;;;9.67;;
77544;SDS011;66672;50.328;7.610;2023-02-15T10:51:02;17.77;;;8.87;;
77544;SDS011;66672;50.328;7.610;2023-02-15T10:59:44;18.30;;;9.43;;
77544;SDS011;66672;50.328;7.610;2023-02-15T11:04:57;17.63;;;9.07;;
77544;SDS011;66672;50.328;7.610;2023-02-15T11:07:43;19.35;;;9.68;;
77544;SDS011;66672;50.328;7.610;2023-02-15T11:10:28;19.20;;;10.03;;
77544;SDS011;66672;50.328;7.610;2023-02-15T11:13:02;20.37;;;10.17;;
77544;SDS011;66672;50.328;7.610;2023-02-15T11:18:12;18.53;;;9.47;;
77544;SDS011;66672;50.328;7.610;2023-02-15T11:21:24;20.03;;;10.00;;
77544;SDS011;66672;50.328;7.610;2023-02-15T11:23:50;17.60;;;9.30;;
77544;SDS011;66672;50.328;7.610;2023-02-15T11:26:19;17.10;;;8.93;;
77544;SDS011;66672;50.328;7.610;2023-02-15T11:29:09;21.97;;;10.03;;
77544;SDS011;66672;50.328;7.610;2023-02-15T11:31:44;17.60;;;9.00;;
77544;SDS011;66672;50.328;7.610;2023-02-15T11:34:15;19.03;;;9.63;;
77544;SDS011;66672;50.328;7.610;2023-02-15T11:36:47;23.50;;;11.90;;
77544;SDS011;66672;50.328;7.610;2023-02-15T11:39:15;16.77;;;8.57;;
77544;SDS011;66672;50.328;7.610;2023-02-15T11:41:47;17.83;;;9.33;;
77544;SDS011;66672;50.328;7.610;2023-02-15T11:45:18;15.77;;;8.03;;
77544;SDS011;66672;50.328;7.610;2023-02-15T11:47:19;18.17;;;9.23;;
77544;SDS011;66672;50.328;7.610;2023-02-15T11:49:44;19.73;;;9.97;;
77544;SDS011;66672;50.328;7.610;2023-02-15T11:52:12;14.50;;;7.10;;
77544;SDS011;66672;50.328;7.610;2023-02-15T11:54:41;18.83;;;10.77;;
77544;SDS011;66672;50.328;7.610;2023-02-15T12:00:01;17.37;;;9.67;;
77544;SDS011;66672;50.328;7.610;2023-02-15T12:02:32;19.17;;;9.67;;
77544;SDS011;66672;50.328;7.610;2023-02-15T12:05:01;17.37;;;8.67;;
77544;SDS011;66672;50.328;7.610;2023-02-15T12:07:33;18.37;;;9.73;;
77544;SDS011;66672;50.328;7.610;2023-02-15T12:12:38;14.93;;;8.35;;
77544;SDS011;66672;50.328;7.610;2023-02-15T12:15:05;11.70;;;7.35;;
77544;SDS011;66672;50.328;7.610;2023-02-15T12:17:41;14.85;;;8.35;;
77544;SDS011;66672;50.328;7.610;2023-02-15T12:22:45;14.07;;;8.18;;
77544;SDS011;66672;50.328;7.610;2023-02-15T12:25:20;16.83;;;7.95;;
77544;SDS011;66672;50.328;7.610;2023-02-15T12:27:48;12.70;;;7.60;;
77544;SDS011;66672;50.328;7.610;2023-02-15T12:33:07;14.82;;;8.27;;
77544;SDS011;66672;50.328;7.610;2023-02-15T12:35:41;14.60;;;7.90;;
77544;SDS011;66672;50.328;7.610;2023-02-15T12:40:34;12.48;;;7.95;;
77544;SDS011;66672;50.328;7.610;2023-02-15T12:43:00;12.40;;;6.78;;
77544;SDS011;66672;50.328;7.610;2023-02-15T12:45:33;12.70;;;7.03;;
77544;SDS011;66672;50.328;7.610;2023-02-15T12:48:10;10.73;;;6.75;;
77544;SDS011;66672;50.328;7.610;2023-02-15T12:50:44;14.93;;;8.25;;
77544;SDS011;66672;50.328;7.610;2023-02-15T12:53:18;14.77;;;7.43;;
77544;SDS011;66672;50.328;7.610;2023-02-15T12:55:52;14.65;;;7.70;;
77544;SDS011;66672;50.328;7.610;2023-02-15T12:58:27;11.38;;;6.25;;
77544;SDS011;66672;50.328;7.610;2023-02-15T13:06:24;12.15;;;7.28;;
77544;SDS011;66672;50.328;7.610;2023-02-15T13:08:52;13.43;;;7.85;;
77544;SDS011;66672;50.328;7.610;2023-02-15T13:11:29;11.18;;;6.80;;
77544;SDS011;66672;50.328;7.610;2023-02-15T13:14:00;12.90;;;7.65;;
77544;SDS011;66672;50.328;7.610;2023-02-15T13:18:59;11.70;;;6.75;;
77544;SDS011;66672;50.328;7.610;2023-02-15T13:21:35;18.45;;;7.78;;
77544;SDS011;66672;50.328;7.610;2023-02-15T13:27:12;11.27;;;6.90;;
77544;SDS011;66672;50.328;7.610;2023-02-15T13:29:42;11.70;;;7.28;;
77544;SDS011;66672;50.328;7.610;2023-02-15T13:32:12;14.27;;;8.15;;
77544;SDS011;66672;50.328;7.610;2023-02-15T13:34:50;12.30;;;7.45;;
77544;SDS011;66672;50.328;7.610;2023-02-15T13:37:26;11.93;;;7.25;;
77544;SDS011;66672;50.328;7.610;2023-02-15T13:43:04;12.82;;;8.23;;
77544;SDS011;66672;50.328;7.610;2023-02-15T13:45:46;12.82;;;8.00;;
77544;SDS011;66672;50.328;7.610;2023-02-15T13:48:34;13.10;;;7.28;;
77544;SDS011;66672;50.328;7.610;2023-02-15T13:51:22;12.77;;;8.45;;
77544;SDS011;66672;50.328;7.610;2023-02-15T13:56:46;14.02;;;7.75;;
77544;SDS011;66672;50.328;7.610;2023-02-15T14:01:45;13.88;;;8.48;;
77544;SDS011;66672;50.328;7.610;2023-02-15T14:07:04;16.27;;;9.68;;
77544;SDS011;66672;50.328;7.610;2023-02-15T14:09:39;12.98;;;6.72;;
77544;SDS011;66672;50.328;7.610;2023-02-15T14:17:17;13.32;;;8.23;;
77544;SDS011;66672;50.328;7.610;2023-02-15T14:25:16;13.95;;;8.57;;
77544;SDS011;66672;50.328;7.610;2023-02-15T14:30:34;16.13;;;8.23;;
77544;SDS011;66672;50.328;7.610;2023-02-15T14:35:56;16.73;;;9.00;;
77544;SDS011;66672;50.328;7.610;2023-02-15T14:41:17;12.13;;;7.35;;
77544;SDS011;66672;50.328;7.610;2023-02-15T14:44:04;13.95;;;8.73;;
77544;SDS011;66672;50.328;7.610;2023-02-15T14:46:55;15.30;;;8.48;;
77544;SDS011;66672;50.328;7.610;2023-02-15T14:49:32;14.73;;;7.88;;
77544;SDS011;66672;50.328;7.610;2023-02-15T14:52:05;13.02;;;7.50;;
77544;SDS011;66672;50.328;7.610;2023-02-15T15:05:12;14.82;;;8.38;;
77544;SDS011;66672;50.328;7.610;2023-02-15T15:07:52;16.35;;;8.80;;
77544;SDS011;66672;50.328;7.610;2023-02-15T15:12:49;19.17;;;9.13;;
77544;SDS011;66672;50.328;7.610;2023-02-15T15:17:52;15.43;;;9.20;;
77544;SDS011;66672;50.328;7.610;2023-02-15T15:25:47;17.95;;;10.45;;
77544;SDS011;66672;50.328;7.610;2023-02-15T15:33:53;16.20;;;9.25;;
77544;SDS011;66672;50.328;7.610;2023-02-15T15:36:35;18.77;;;9.65;;
77544;SDS011;66672;50.328;7.610;2023-02-15T15:42:12;17.10;;;9.20;;
77544;SDS011;66672;50.328;7.610;2023-02-15T15:50:53;19.20;;;10.40;;
77544;SDS011;66672;50.328;7.610;2023-02-15T15:53:23;17.77;;;10.55;;
77544;SDS011;66672;50.328;7.610;2023-02-15T15:55:50;18.88;;;9.57;;
77544;SDS011;66672;50.328;7.610;2023-02-15T15:58:22;16.95;;;9.75;;
77544;SDS011;66672;50.328;7.610;2023-02-15T16:00:49;19.20;;;9.80;;
77544;SDS011;66672;50.328;7.610;2023-02-15T16:03:29;16.08;;;10.18;;
77544;SDS011;66672;50.328;7.610;2023-02-15T16:05:54;16.60;;;9.25;;
77544;SDS011;66672;50.328;7.610;2023-02-15T16:10:57;17.77;;;9.90;;
77544;SDS011;66672;50.328;7.610;2023-02-15T16:13:24;17.08;;;9.93;;
77544;SDS011;66672;50.328;7.610;2023-02-15T16:15:51;20.90;;;11.60;;
77544;SDS011;66672;50.328;7.610;2023-02-15T16:18:23;16.83;;;8.97;;
77544;SDS011;66672;50.328;7.610;2023-02-15T16:20:55;18.88;;;9.15;;
77544;SDS011;66672;50.328;7.610;2023-02-15T16:28:58;18.37;;;9.00;;
77544;SDS011;66672;50.328;7.610;2023-02-15T16:31:23;19.30;;;10.83;;
77544;SDS011;66672;50.328;7.610;2023-02-15T16:33:51;20.20;;;11.03;;
77544;SDS011;66672;50.328;7.610;2023-02-15T16:36:22;20.47;;;11.50;;
77544;SDS011;66672;50.328;7.610;2023-02-15T16:41:20;20.50;;;11.33;;
77544;SDS011;66672;50.328;7.610;2023-02-15T16:43:50;17.07;;;10.33;;
77544;SDS011;66672;50.328;7.610;2023-02-15T16:46:23;23.97;;;11.90;;
77544;SDS011;66672;50.328;7.610;2023-02-15T16:48:55;17.13;;;9.07;;
77544;SDS011;66672;50.328;7.610;2023-02-15T16:51:25;17.93;;;10.10;;
77544;SDS011;66672;50.328;7.610;2023-02-15T16:53:56;19.23;;;10.77;;
77544;SDS011;66672;50.328;7.610;2023-02-15T16:56:29;24.33;;;11.65;;
77544;SDS011;66672;50.328;7.610;2023-02-15T16:58:55;20.83;;;10.93;;
77544;SDS011;66672;50.328;7.610;2023-02-15T17:01:24;15.77;;;9.07;;
77544;SDS011;66672;50.328;7.610;2023-02-15T17:04:10;22.30;;;11.27;;
77544;SDS011;66672;50.328;7.610;2023-02-15T17:07:03;23.43;;;13.27;;
77544;SDS011;66672;50.328;7.610;2023-02-15T17:09:53;20.53;;;11.67;;
77544;SDS011;66672;50.328;7.610;2023-02-15T17:15:26;22.53;;;12.47;;
77544;SDS011;66672;50.328;7.610;2023-02-15T17:18:03;20.27;;;11.63;;
77544;SDS011;66672;50.328;7.610;2023-02-15T17:20:32;22.03;;;12.13;;
77544;SDS011;66672;50.328;7.610;2023-02-15T17:22:58;22.83;;;11.60;;
77544;SDS011;66672;50.328;7.610;2023-02-15T17:25:37;22.00;;;11.17;;
77544;SDS011;66672;50.328;7.610;2023-02-15T17:28:04;20.40;;;12.23;;
77544;SDS011;66672;50.328;7.610;2023-02-15T17:30:40;21.67;;;10.97;;
77544;SDS011;66672;50.328;7.610;2023-02-15T17:33:12;24.93;;;13.50;;
77544;SDS011;66672;50.328;7.610;2023-02-15T17:35:45;22.93;;;12.57;;
77544;SDS011;66672;50.328;7.610;2023-02-15T17:38:31;23.40;;;12.50;;
77544;SDS011;66672;50.328;7.610;2023-02-15T17:40:57;22.40;;;13.23;;
77544;SDS011;66672;50.328;7.610;2023-02-15T17:43:23;23.97;;;13.67;;
77544;SDS011;66672;50.328;7.610;2023-02-15T17:45:51;24.97;;;13.70;;
77544;SDS011;66672;50.328;7.610;2023-02-15T17:48:21;30.70;;;12.93;;
77544;SDS011;66672;50.328;7.610;2023-02-15T17:50:55;22.30;;;13.17;;
77544;SDS011;66672;50.328;7.610;2023-02-15T17:53:21;22.73;;;12.33;;
77544;SDS011;66672;50.328;7.610;2023-02-15T17:55:47;21.77;;;12.63;;
77544;SDS011;66672;50.328;7.610;2023-02-15T17:58:14;23.03;;;12.63;;
77544;SDS011;66672;50.328;7.610;2023-02-15T18:00:42;25.73;;;12.87;;
77544;SDS011;66672;50.328;7.610;2023-02-15T18:03:38;24.43;;;13.03;;
77544;SDS011;66672;50.328;7.610;2023-02-15T18:06:27;22.43;;;12.00;;